Roseway — WDB8858 — position and weather

sailwx.info

Track history (hours):
 
Tides and Currents Weather Stations Pressure Air Temp Water Temp Dewpoint Dewpoint Depression Visibility Wind Speed Wind Dir Waves Ship Positions

Roseway

Last pilot schooner in the United States when retired in 1973. Offered teen sailing program through World Ocean School since 2002.

Ship's website: http://www.worldoceanschool.org

Owner: World Ocean School, Boston, MA. More information available from US FCC via Universal Licensing System and Coast Guard Vessel Documentation Center.

Last reported at 2018-Nov-05 16:30 UTC. Time now 2018-Dec-11 00:14 UTC.
Position N 31°59' W 080°45'.
Warning: this ship's position is 35 days out of date.

Length 34 m; draft 3.3 m.

Type: Sailing vessel. MMSI: 366866000.

Date/timePositionNaut miles runAvg speedWind from/ knotsBaromVisibWave heightAir tempDewpointWater temp
2018-Nov-05 16:30N 31°59' W 080°45'2 4.2
2018-Nov-05 16:02N 31°60' W 080°47'2 5.6
2018-Nov-05 15:36N 32°02' W 080°49'1 6.1
2018-Nov-05 15:29N 32°02' W 080°49'3 6.7
2018-Nov-05 15:02N 32°02' W 080°53'0 8.2
2018-Nov-05 14:58N 32°02' W 080°54'3 7.2
2018-Nov-05 14:30N 32°04' W 080°57'3 7.1
2018-Nov-05 14:03N 32°06' W 081°00'0 7.0
2018-Nov-05 14:00N 32°06' W 081°00'4 3.1
2018-Nov-05 12:39N 32°05' W 081°05'0 0.0
2018-Nov-05 11:54N 32°05' W 081°05'0 0.0
2018-Nov-05 11:24N 32°05' W 081°05'0 0.0
2018-Nov-05 11:00N 32°05' W 081°05'0 0.0
2018-Nov-05 10:22N 32°05' W 081°05'0 0.0
2018-Nov-05 09:52N 32°05' W 081°05'0 0.0
2018-Nov-05 09:30N 32°05' W 081°05'0 0.0
2018-Nov-05 08:57N 32°05' W 081°05'0 0.0
2018-Nov-05 08:26N 32°05' W 081°05'0 0.0
2018-Nov-05 07:58N 32°05' W 081°05'0 0.0
2018-Nov-05 07:30N 32°05' W 081°05'0 0.0
2018-Nov-05 06:47N 32°05' W 081°05'0 0.0
2018-Nov-05 06:29N 32°05' W 081°05'0 0.0
2018-Nov-05 05:32N 32°05' W 081°05'0 0.0
2018-Nov-05 05:27N 32°05' W 081°05'0 0.0
2018-Nov-05 05:02N 32°05' W 081°05'0 0.0
2018-Nov-05 04:59N 32°05' W 081°05'0 0.0
2018-Nov-05 04:29N 32°05' W 081°05'0 0.0
2018-Nov-05 04:02N 32°05' W 081°05'0 0.0
2018-Nov-05 03:59N 32°05' W 081°05'0 0.0
2018-Nov-05 03:28N 32°05' W 081°05'0 0.0
2018-Nov-05 03:01N 32°05' W 081°05'0 0.1
2018-Nov-05 02:58N 32°05' W 081°05'0 0.0
2018-Nov-05 02:28N 32°05' W 081°05'0 0.0
2018-Nov-05 02:02N 32°05' W 081°05'0 0.0
2018-Nov-05 01:59N 32°05' W 081°05'0 0.0
2018-Nov-05 01:27N 32°05' W 081°05'0 0.0
2018-Nov-05 01:02N 32°05' W 081°05'0 0.0
2018-Nov-05 00:59N 32°05' W 081°05'0 0.0
2018-Nov-05 00:29N 32°05' W 081°05'0 0.0
2018-Nov-05 00:03N 32°05' W 081°05'0 0.0
2018-Nov-04 23:57N 32°05' W 081°05'0 0.0
2018-Nov-04 23:29N 32°05' W 081°05'0 0.0
2018-Nov-04 23:02N 32°05' W 081°05'0 0.2
2018-Nov-04 22:59N 32°05' W 081°05'0 0.0
2018-Nov-04 22:29N 32°05' W 081°05'0 0.0
2018-Nov-04 22:03N 32°05' W 081°05'0 0.0
2018-Nov-04 22:00N 32°05' W 081°05'0 0.0
2018-Nov-04 21:30N 32°05' W 081°05'0 0.0
2018-Nov-04 21:03N 32°05' W 081°05'0 0.0
2018-Nov-04 21:00N 32°05' W 081°05'0 0.0
2018-Nov-04 20:29N 32°05' W 081°05'0 0.0
2018-Nov-04 19:59N 32°05' W 081°05'0 0.0
2018-Nov-04 19:30N 32°05' W 081°05'0 0.0
2018-Nov-04 18:58N 32°05' W 081°05'0 0.0
2018-Nov-04 18:28N 32°05' W 081°05'0 0.0
2018-Nov-04 18:00N 32°05' W 081°05'0 0.0
2018-Nov-04 17:30N 32°05' W 081°05'0 0.0
2018-Nov-04 17:00N 32°05' W 081°05'0 0.0
2018-Nov-04 16:30N 32°05' W 081°05'0 0.0
2018-Nov-04 16:02N 32°05' W 081°05'0 0.0
2018-Nov-04 15:59N 32°05' W 081°05'0 0.0
2018-Nov-04 15:30N 32°05' W 081°05'0 0.0
2018-Nov-04 15:00N 32°05' W 081°05'0 0.0
2018-Nov-04 14:20N 32°05' W 081°05'0 0.0
2018-Nov-04 13:56N 32°05' W 081°05'0 0.0
2018-Nov-04 13:17N 32°05' W 081°05'0 0.0
2018-Nov-04 13:02N 32°05' W 081°05'0 0.0
2018-Nov-04 12:47N 32°05' W 081°05'0 0.0
2018-Nov-04 12:20N 32°05' W 081°05'0 0.0
2018-Nov-04 11:59N 32°05' W 081°05'0 0.0
2018-Nov-04 11:28N 32°05' W 081°05'0 0.0
2018-Nov-04 10:57N 32°05' W 081°05'0 0.0
2018-Nov-04 10:30N 32°05' W 081°05'0 0.0
2018-Nov-04 10:03N 32°05' W 081°05'0 0.0
2018-Nov-04 10:00N 32°05' W 081°05'0 0.0
2018-Nov-04 09:30N 32°05' W 081°05'0 0.0
2018-Nov-04 09:03N 32°05' W 081°05'0 0.0
2018-Nov-04 09:00N 32°05' W 081°05'0 0.0
2018-Nov-04 08:30N 32°05' W 081°05'0 0.0
2018-Nov-04 08:01N 32°05' W 081°05'0 0.0
2018-Nov-04 07:58N 32°05' W 081°05'0 0.0
2018-Nov-04 07:28N 32°05' W 081°05'0 0.0
2018-Nov-04 07:01N 32°05' W 081°05'0 0.0
2018-Nov-04 06:57N 32°05' W 081°05'0 0.0
2018-Nov-04 06:19N 32°05' W 081°05'0 0.0
2018-Nov-04 05:53N 32°05' W 081°05'0 0.0
2018-Nov-04 05:29N 32°05' W 081°05'0 0.0
2018-Nov-04 05:01N 32°05' W 081°05'0 0.0
2018-Nov-04 04:57N 32°05' W 081°05'0 0.0
2018-Nov-04 04:24N 32°05' W 081°05'0 0.0
2018-Nov-04 04:03N 32°05' W 081°05'0 0.0
2018-Nov-04 03:59N 32°05' W 081°05'0 0.0
2018-Nov-04 03:26N 32°05' W 081°05'0 0.0
2018-Nov-04 03:00N 32°05' W 081°05'0 0.0
2018-Nov-04 02:26N 32°05' W 081°05'0 0.0
2018-Nov-04 01:57N 32°05' W 081°05'0 0.0
2018-Nov-04 01:28N 32°05' W 081°05'0 0.0
2018-Nov-04 00:08N 32°05' W 081°05'0 0.0
2018-Nov-03 23:59N 32°05' W 081°05'0 0.0
2018-Nov-03 23:29N 32°05' W 081°05'0 0.0
2018-Nov-03 22:55N 32°05' W 081°05'0 0.0
2018-Nov-03 22:12N 32°05' W 081°05'0 0.0
2018-Nov-03 20:29N 32°05' W 081°05'0 0.0
2018-Nov-03 19:59N 32°05' W 081°05'0 0.0
2018-Nov-03 19:29N 32°05' W 081°05'0 0.0
2018-Nov-03 18:59N 32°05' W 081°05'0 0.0
2018-Nov-03 18:29N 32°05' W 081°05'0 0.0
2018-Nov-03 18:03N 32°05' W 081°05'0 0.0
2018-Nov-03 18:00N 32°05' W 081°05'0 0.0
2018-Nov-03 17:16N 32°05' W 081°05'0 0.0
2018-Nov-03 17:01N 32°05' W 081°05'0 0.0
2018-Nov-03 16:09N 32°05' W 081°05'0 0.0
2018-Nov-03 15:56N 32°05' W 081°05'0 0.0
2018-Nov-03 15:22N 32°05' W 081°05'0 0.0
2018-Nov-03 15:00N 32°05' W 081°05'0 0.0
2018-Nov-03 14:24N 32°05' W 081°05'0 0.0
2018-Nov-03 13:50N 32°05' W 081°05'0 0.0
2018-Nov-03 13:26N 32°05' W 081°05'0 0.0
2018-Nov-03 12:50N 32°05' W 081°05'0 0.0
2018-Nov-03 12:26N 32°05' W 081°05'0 0.0
2018-Nov-03 11:44N 32°05' W 081°05'0 0.0
2018-Nov-03 11:26N 32°05' W 081°05'0 0.0
2018-Nov-03 10:30N 32°05' W 081°05'0 0.0
2018-Nov-03 09:46N 32°05' W 081°05'0 0.0
2018-Nov-03 09:03N 32°05' W 081°05'0 0.0
2018-Nov-03 09:00N 32°05' W 081°05'0 0.0
2018-Nov-03 08:16N 32°05' W 081°05'0 0.0
2018-Nov-03 07:49N 32°05' W 081°05'0 0.0
2018-Nov-03 07:16N 32°05' W 081°05'0 0.0
2018-Nov-03 07:02N 32°05' W 081°05'0 0.0
2018-Nov-03 06:52N 32°05' W 081°05'0 0.0
2018-Nov-03 06:28N 32°05' W 081°05'0 0.0
2018-Nov-03 06:03N 32°05' W 081°05'0 0.0
2018-Nov-03 06:00N 32°05' W 081°05'0 0.0
2018-Nov-03 05:30N 32°05' W 081°05'0 0.0
2018-Nov-03 05:03N 32°05' W 081°05'0 0.0
2018-Nov-03 05:00N 32°05' W 081°05'0 0.0
2018-Nov-03 04:30N 32°05' W 081°05'0 0.0
2018-Nov-03 04:03N 32°05' W 081°05'0 0.1
2018-Nov-03 04:00N 32°05' W 081°05'0 0.0
2018-Nov-03 03:30N 32°05' W 081°05'0 0.0
2018-Nov-03 03:03N 32°05' W 081°05'0 0.0
2018-Nov-03 03:00N 32°05' W 081°05'0 0.0
2018-Nov-03 02:30N 32°05' W 081°05'0 0.0
2018-Nov-03 02:03N 32°05' W 081°05'0 0.0
2018-Nov-03 02:00N 32°05' W 081°05'0 0.0
2018-Nov-03 01:28N 32°05' W 081°05'0 0.0
2018-Nov-03 01:03N 32°05' W 081°05'0 0.1
2018-Nov-03 01:00N 32°05' W 081°05'0 0.0
2018-Nov-03 00:30N 32°05' W 081°05'0 0.0
2018-Nov-03 00:03N 32°05' W 081°05'0 0.0
2018-Nov-03 00:00N 32°05' W 081°05'0 0.0
2018-Nov-02 23:28N 32°05' W 081°05'0 0.0
2018-Nov-02 23:01N 32°05' W 081°05'0 0.0
2018-Nov-02 22:58N 32°05' W 081°05'0 0.0
2018-Nov-02 22:29N 32°05' W 081°05'0 0.0
2018-Nov-02 22:02N 32°05' W 081°05'0 0.0
2018-Nov-02 21:59N 32°05' W 081°05'0 0.0
2018-Nov-02 21:29N 32°05' W 081°05'0 0.0
2018-Nov-02 21:02N 32°05' W 081°05'0 0.0
2018-Nov-02 20:59N 32°05' W 081°05'0 0.0
2018-Nov-02 20:28N 32°05' W 081°05'0 0.0
2018-Nov-02 20:02N 32°05' W 081°05'0 0.0
2018-Nov-02 19:59N 32°05' W 081°05'0 0.0
2018-Nov-02 19:30N 32°05' W 081°05'0 0.0
2018-Nov-02 19:03N 32°05' W 081°05'0 0.0
2018-Nov-02 19:00N 32°05' W 081°05'0 0.0
2018-Nov-02 18:27N 32°05' W 081°05'0 0.0
2018-Nov-02 18:03N 32°05' W 081°05'0 0.0
2018-Nov-02 18:00N 32°05' W 081°05'0 0.0
2018-Nov-02 17:27N 32°05' W 081°05'0 0.0
2018-Nov-02 17:03N 32°05' W 081°05'0 0.1
2018-Nov-02 17:00N 32°05' W 081°05'0 0.0
2018-Nov-02 16:28N 32°05' W 081°05'0 0.0
2018-Nov-02 16:01N 32°05' W 081°05'0 0.2
2018-Nov-02 15:58N 32°05' W 081°05'0 0.0
2018-Nov-02 15:28N 32°05' W 081°05'0 0.0
2018-Nov-02 15:03N 32°05' W 081°05'0 0.0
2018-Nov-02 15:00N 32°05' W 081°05'0 0.0
2018-Nov-02 14:03N 32°05' W 081°05'0 0.0
2018-Nov-02 14:00N 32°05' W 081°05'0 0.0
2018-Nov-02 13:30N 32°05' W 081°05'0 0.0
2018-Nov-02 13:03N 32°05' W 081°05'0 0.0
2018-Nov-02 13:00N 32°05' W 081°05'0 0.0
2018-Nov-02 12:30N 32°05' W 081°05'0 0.0
2018-Nov-02 12:02N 32°05' W 081°05'0 0.0
2018-Nov-02 11:59N 32°05' W 081°05'0 0.0
2018-Nov-02 11:29N 32°05' W 081°05'0 0.0
2018-Nov-02 11:02N 32°05' W 081°05'0 0.0
2018-Nov-02 10:59N 32°05' W 081°05'0 0.0
2018-Nov-02 10:30N 32°05' W 081°05'0 0.0
2018-Nov-02 10:03N 32°05' W 081°05'0 0.0
2018-Nov-02 10:00N 32°05' W 081°05'0 0.0
2018-Nov-02 09:30N 32°05' W 081°05'0 0.0
2018-Nov-02 09:02N 32°05' W 081°05'0 0.0
2018-Nov-02 08:59N 32°05' W 081°05'0 0.0
2018-Nov-02 08:29N 32°05' W 081°05'0 0.0
2018-Nov-02 07:57N 32°05' W 081°05'0 0.0
2018-Nov-02 07:30N 32°05' W 081°05'0 0.0
2018-Nov-02 07:00N 32°05' W 081°05'0 0.0
2018-Nov-02 06:30N 32°05' W 081°05'0 0.0
2018-Nov-02 06:02N 32°05' W 081°05'0 0.0
2018-Nov-02 05:59N 32°05' W 081°05'0 0.0
2018-Nov-02 05:29N 32°05' W 081°05'0 0.0
2018-Nov-02 05:01N 32°05' W 081°05'0 0.0
2018-Nov-02 04:57N 32°05' W 081°05'0 0.0
2018-Nov-02 04:27N 32°05' W 081°05'0 0.0
2018-Nov-02 04:01N 32°05' W 081°05'0 0.0
2018-Nov-02 03:58N 32°05' W 081°05'0 0.0
2018-Nov-02 03:29N 32°05' W 081°05'0 0.0
2018-Nov-02 03:01N 32°05' W 081°05'0 0.0
2018-Nov-02 02:58N 32°05' W 081°05'0 0.0
2018-Nov-02 02:28N 32°05' W 081°05'0 0.0
2018-Nov-02 02:01N 32°05' W 081°05'0 0.0
2018-Nov-02 01:58N 32°05' W 081°05'0 0.0
2018-Nov-02 01:25N 32°05' W 081°05'0 0.0
2018-Nov-02 01:01N 32°05' W 081°05'0 0.0
2018-Nov-02 00:58N 32°05' W 081°05'0 0.0
2018-Nov-02 00:55N 32°05' W 081°05'0 0.0
2018-Nov-02 00:31N 32°05' W 081°05'0 0.0
2018-Nov-02 00:28N 32°05' W 081°05'0 0.0
2018-Nov-02 00:01N 32°05' W 081°05'0 0.0
2018-Nov-01 23:58N 32°05' W 081°05'0 0.0
2018-Nov-01 23:28N 32°05' W 081°05'0 0.0
2018-Nov-01 23:01N 32°05' W 081°05'0 0.0
2018-Nov-01 22:58N 32°05' W 081°05'0 0.0
2018-Nov-01 22:28N 32°05' W 081°05'0 0.0
2018-Nov-01 22:01N 32°05' W 081°05'0 0.0
2018-Nov-01 21:58N 32°05' W 081°05'0 0.0
2018-Nov-01 21:29N 32°05' W 081°05'0 0.0
2018-Nov-01 21:03N 32°05' W 081°05'0 0.1
2018-Nov-01 21:00N 32°05' W 081°05'0 0.0
2018-Nov-01 20:30N 32°05' W 081°05'0 0.0
2018-Nov-01 20:03N 32°05' W 081°05'0 0.0
2018-Nov-01 20:00N 32°05' W 081°05'0 0.0
2018-Nov-01 19:25N 32°05' W 081°05'0 0.0
2018-Nov-01 19:01N 32°05' W 081°05'0 0.0
2018-Nov-01 18:58N 32°05' W 081°05'0 0.0
2018-Nov-01 18:28N 32°05' W 081°05'0 0.0
2018-Nov-01 18:02N 32°05' W 081°05'0 0.0
2018-Nov-01 17:59N 32°05' W 081°05'0 0.0
2018-Nov-01 17:30N 32°05' W 081°05'0 0.0
2018-Nov-01 17:02N 32°05' W 081°05'0 0.0
2018-Nov-01 16:59N 32°05' W 081°05'0 0.0
2018-Nov-01 16:29N 32°05' W 081°05'0 0.0
2018-Nov-01 16:01N 32°05' W 081°05'0 0.0
2018-Nov-01 15:58N 32°05' W 081°05'0 0.0
2018-Nov-01 15:28N 32°05' W 081°05'0 0.0
2018-Nov-01 14:59N 32°05' W 081°05'0 0.0
2018-Nov-01 14:29N 32°05' W 081°05'0 0.0
2018-Nov-01 13:59N 32°05' W 081°05'0 0.0
2018-Nov-01 13:29N 32°05' W 081°05'0 0.0
2018-Nov-01 08:51N 32°05' W 081°05'0 0.0
2018-Nov-01 08:29N 32°05' W 081°05'0 0.0
2018-Nov-01 08:02N 32°05' W 081°05'0 0.0
2018-Nov-01 07:59N 32°05' W 081°05'0 0.0
2018-Nov-01 07:29N 32°05' W 081°05'0 0.0
2018-Nov-01 07:02N 32°05' W 081°05'0 0.0
2018-Nov-01 06:59N 32°05' W 081°05'0 0.0
2018-Nov-01 06:27N 32°05' W 081°05'0 0.0
2018-Nov-01 06:03N 32°05' W 081°05'0 0.0
2018-Nov-01 06:00N 32°05' W 081°05'0 0.0
2018-Nov-01 05:30N 32°05' W 081°05'0 0.0
2018-Nov-01 05:02N 32°05' W 081°05'0 0.0
2018-Nov-01 04:59N 32°05' W 081°05'0 0.0
2018-Nov-01 04:29N 32°05' W 081°05'0 0.0
2018-Nov-01 04:03N 32°05' W 081°05'0 0.1
2018-Nov-01 04:00N 32°05' W 081°05'0 0.0
2018-Nov-01 03:30N 32°05' W 081°05'0 0.0
2018-Nov-01 03:02N 32°05' W 081°05'0 0.1
2018-Nov-01 02:59N 32°05' W 081°05'0 0.0
2018-Nov-01 02:30N 32°05' W 081°05'0 0.0
2018-Nov-01 02:03N 32°05' W 081°05'0 0.0
2018-Nov-01 02:00N 32°05' W 081°05'0 0.0
2018-Nov-01 01:30N 32°05' W 081°05'0 0.0
2018-Nov-01 01:03N 32°05' W 081°05'0 0.0
2018-Nov-01 01:00N 32°05' W 081°05'0 0.0
2018-Nov-01 00:29N 32°05' W 081°05'0 0.0
2018-Nov-01 00:01N 32°05' W 081°05'0 0.0
2018-Oct-31 23:58N 32°05' W 081°05'0 0.0
2018-Oct-31 23:28N 32°05' W 081°05'0 0.0
2018-Oct-31 23:01N 32°05' W 081°05'0 0.0
2018-Oct-31 22:58N 32°05' W 081°05'0 0.0
2018-Oct-31 22:28N 32°05' W 081°05'0 0.0
2018-Oct-31 22:03N 32°05' W 081°05'0 0.0
2018-Oct-31 22:00N 32°05' W 081°05'0 0.0
2018-Oct-31 21:30N 32°05' W 081°05'0 0.0
2018-Oct-31 21:03N 32°05' W 081°05'0 0.0
2018-Oct-31 21:00N 32°05' W 081°05'0 0.0
2018-Oct-31 20:27N 32°05' W 081°05'0 0.0
2018-Oct-31 20:03N 32°05' W 081°05'0 0.0
2018-Oct-31 20:00N 32°05' W 081°05'0 0.0
2018-Oct-31 19:29N 32°05' W 081°05'0 0.0
2018-Oct-31 19:02N 32°05' W 081°05'0 0.0
2018-Oct-31 18:59N 32°05' W 081°05'0 0.0
2018-Oct-31 18:29N 32°05' W 081°05'0 0.0
2018-Oct-31 18:01N 32°05' W 081°05'0 0.0
2018-Oct-31 17:58N 32°05' W 081°05'0 0.0
2018-Oct-31 17:28N 32°05' W 081°05'0 0.0
2018-Oct-31 17:01N 32°05' W 081°05'0 0.1
2018-Oct-31 16:58N 32°05' W 081°05'0 0.0
2018-Oct-31 16:28N 32°05' W 081°05'0 0.0
2018-Oct-31 16:01N 32°05' W 081°05'0 0.0
2018-Oct-31 15:58N 32°05' W 081°05'0 0.0
2018-Oct-31 15:23N 32°05' W 081°05'0 0.0
2018-Oct-31 15:02N 32°05' W 081°05'0 0.0
2018-Oct-31 14:59N 32°05' W 081°05'0 0.0
2018-Oct-31 14:28N 32°05' W 081°05'0 0.0
2018-Oct-31 13:56N 32°05' W 081°05'0 0.0
2018-Oct-31 13:28N 32°05' W 081°05'0 0.0
2018-Oct-31 13:03N 32°05' W 081°05'0 0.0
2018-Oct-31 13:00N 32°05' W 081°05'0 0.0
2018-Oct-31 12:28N 32°05' W 081°05'0 0.0
2018-Oct-31 11:58N 32°05' W 081°05'0 0.0
2018-Oct-31 11:26N 32°05' W 081°05'0 0.0
2018-Oct-31 11:02N 32°05' W 081°05'0 0.0
2018-Oct-31 10:59N 32°05' W 081°05'0 0.0
2018-Oct-31 10:28N 32°05' W 081°05'0 0.0
2018-Oct-31 10:01N 32°05' W 081°05'0 0.0
2018-Oct-31 09:58N 32°05' W 081°05'0 0.0
2018-Oct-31 09:28N 32°05' W 081°05'0 0.0
2018-Oct-31 09:02N 32°05' W 081°05'0 0.1
2018-Oct-31 08:59N 32°05' W 081°05'0 0.0
2018-Oct-31 08:30N 32°05' W 081°05'0 0.0
2018-Oct-31 08:02N 32°05' W 081°05'0 0.0
2018-Oct-31 07:59N 32°05' W 081°05'0 0.0
2018-Oct-31 07:25N 32°05' W 081°05'0 0.0
2018-Oct-31 06:58N 32°05' W 081°05'0 0.0
2018-Oct-31 06:28N 32°05' W 081°05'0 0.0
2018-Oct-31 05:58N 32°05' W 081°05'0 0.0
2018-Oct-31 05:28N 32°05' W 081°05'0 0.0
2018-Oct-31 05:02N 32°05' W 081°05'0 0.0
2018-Oct-31 04:59N 32°05' W 081°05'0 0.0
2018-Oct-31 04:30N 32°05' W 081°05'0 0.0
2018-Oct-31 04:03N 32°05' W 081°05'0 0.1
2018-Oct-31 04:00N 32°05' W 081°05'0 0.0
2018-Oct-31 03:29N 32°05' W 081°05'0 0.0
2018-Oct-31 03:03N 32°05' W 081°05'0 0.0
2018-Oct-31 03:00N 32°05' W 081°05'0 0.0
2018-Oct-31 02:29N 32°05' W 081°05'0 0.0
2018-Oct-31 02:01N 32°05' W 081°05'0 0.0
2018-Oct-31 01:58N 32°05' W 081°05'0 0.0
2018-Oct-31 01:23N 32°05' W 081°05'0 0.0
2018-Oct-31 01:02N 32°05' W 081°05'0 0.0
2018-Oct-31 00:56N 32°05' W 081°05'0 0.0
2018-Oct-31 00:27N 32°05' W 081°05'0 0.0
2018-Oct-31 00:02N 32°05' W 081°05'0 0.0
2018-Oct-30 23:59N 32°05' W 081°05'0 0.0
2018-Oct-30 23:25N 32°05' W 081°05'0 0.0
2018-Oct-30 23:01N 32°05' W 081°05'0 0.0
2018-Oct-30 22:58N 32°05' W 081°05'0 0.0
2018-Oct-30 22:28N 32°05' W 081°05'0 0.0
2018-Oct-30 21:56N 32°05' W 081°05'0 0.0
2018-Oct-30 21:29N 32°05' W 081°05'0 0.0
2018-Oct-30 21:03N 32°05' W 081°05'0 0.0
2018-Oct-30 21:00N 32°05' W 081°05'0 0.0
2018-Oct-30 20:30N 32°05' W 081°05'0 0.0
2018-Oct-30 19:56N 32°05' W 081°05'0 0.0
2018-Oct-30 19:29N 32°05' W 081°05'0 0.0
2018-Oct-30 19:02N 32°05' W 081°05'0 0.0
2018-Oct-30 18:59N 32°05' W 081°05'0 0.0
2018-Oct-30 18:30N 32°05' W 081°05'0 0.0
2018-Oct-30 18:03N 32°05' W 081°05'0 0.1
2018-Oct-30 18:00N 32°05' W 081°05'0 0.0
2018-Oct-30 17:29N 32°05' W 081°05'0 0.0
2018-Oct-30 17:01N 32°05' W 081°05'0 0.0
2018-Oct-30 16:58N 32°05' W 081°05'0 0.0
2018-Oct-30 16:28N 32°05' W 081°05'0 0.0
2018-Oct-30 16:01N 32°05' W 081°05'0 0.1
2018-Oct-30 15:58N 32°05' W 081°05'0 0.0
2018-Oct-30 15:30N 32°05' W 081°05'0 0.0
2018-Oct-30 15:01N 32°05' W 081°05'0 0.0
2018-Oct-30 14:53N 32°05' W 081°05'0 0.0
2018-Oct-30 14:01N 32°05' W 081°05'0 0.0
2018-Oct-30 13:28N 32°05' W 081°05'0 0.0
2018-Oct-30 13:01N 32°05' W 081°05'0 0.0
2018-Oct-30 12:58N 32°05' W 081°05'0 0.0
2018-Oct-30 12:28N 32°05' W 081°05'0 0.0
2018-Oct-30 12:02N 32°05' W 081°05'0 0.1
2018-Oct-30 11:59N 32°05' W 081°05'0 0.0
2018-Oct-30 11:30N 32°05' W 081°05'0 0.0
2018-Oct-30 11:03N 32°05' W 081°05'0 0.1
2018-Oct-30 11:00N 32°05' W 081°05'0 0.0
2018-Oct-30 10:30N 32°05' W 081°05'0 0.0
2018-Oct-30 10:03N 32°05' W 081°05'0 0.0
2018-Oct-30 10:00N 32°05' W 081°05'0 0.0
2018-Oct-30 09:30N 32°05' W 081°05'0 0.0
2018-Oct-30 08:15N 32°05' W 081°05'0 0.0
2018-Oct-30 08:00N 32°05' W 081°05'0 0.0
2018-Oct-30 07:28N 32°05' W 081°05'0 0.0
2018-Oct-30 06:22N 32°05' W 081°05'0 0.0
2018-Oct-30 06:02N 32°05' W 081°05'0 0.0
2018-Oct-30 05:59N 32°05' W 081°05'0 0.0
2018-Oct-30 05:29N 32°05' W 081°05'0 0.0
2018-Oct-30 05:02N 32°05' W 081°05'0 0.0
2018-Oct-30 04:59N 32°05' W 081°05'0 0.0
2018-Oct-30 04:29N 32°05' W 081°05'0 0.0
2018-Oct-30 04:02N 32°05' W 081°05'0 0.0
2018-Oct-30 03:56N 32°05' W 081°05'0 0.0
2018-Oct-30 03:30N 32°05' W 081°05'0 0.0
2018-Oct-30 03:03N 32°05' W 081°05'0 0.0
2018-Oct-30 02:57N 32°05' W 081°05'0 0.0
2018-Oct-30 02:30N 32°05' W 081°05'0 0.0
2018-Oct-30 02:03N 32°05' W 081°05'0 0.0
2018-Oct-30 02:00N 32°05' W 081°05'0 0.0
2018-Oct-30 01:28N 32°05' W 081°05'0 0.0
2018-Oct-30 01:03N 32°05' W 081°05'0 0.0
2018-Oct-30 01:00N 32°05' W 081°05'0 0.0
2018-Oct-30 00:29N 32°05' W 081°05'0 0.0
2018-Oct-30 00:02N 32°05' W 081°05'0 0.0
2018-Oct-29 23:58N 32°05' W 081°05'0 0.0
2018-Oct-29 23:28N 32°05' W 081°05'0 0.0
2018-Oct-29 23:01N 32°05' W 081°05'0 0.1
2018-Oct-29 22:58N 32°05' W 081°05'0 0.0
2018-Oct-29 22:30N 32°05' W 081°05'0 0.0
2018-Oct-29 22:01N 32°05' W 081°05'0 0.0
2018-Oct-29 21:58N 32°05' W 081°05'0 0.0
2018-Oct-29 21:28N 32°05' W 081°05'0 0.0
2018-Oct-29 21:02N 32°05' W 081°05'0 0.0
2018-Oct-29 20:59N 32°05' W 081°05'0 0.0
2018-Oct-29 20:28N 32°05' W 081°05'0 0.0
2018-Oct-29 20:03N 32°05' W 081°05'0 0.0
2018-Oct-29 20:00N 32°05' W 081°05'0 0.0
2018-Oct-29 19:25N 32°05' W 081°05'0 0.0
2018-Oct-29 19:02N 32°05' W 081°05'0 0.0
2018-Oct-29 18:59N 32°05' W 081°05'0 0.0
2018-Oct-29 18:30N 32°05' W 081°05'0 0.0
2018-Oct-29 18:03N 32°05' W 081°05'0 0.0
2018-Oct-29 18:00N 32°05' W 081°05'1 2.1
2018-Oct-29 17:30N 32°05' W 081°04'2 5.1
2018-Oct-29 17:03N 32°06' W 081°01'0 5.9
2018-Oct-29 17:00N 32°06' W 081°01'2 4.3
2018-Oct-29 16:30N 32°05' W 080°59'2 5.5
2018-Oct-29 16:03N 32°03' W 080°56'0 6.2
2018-Oct-29 16:00N 32°03' W 080°56'3 5.9
2018-Oct-29 15:30N 32°02' W 080°53'3 5.6
2018-Oct-29 15:03N 32°02' W 080°50'0 5.4
2018-Oct-29 15:00N 32°02' W 080°50'3 5.7
2018-Oct-29 14:30N 31°60' W 080°48'  
2018-Oct-26 22:31N 32°47' W 079°55'  
Track history (hours):
 
Tides and Currents Weather Stations Pressure Air Temp Water Temp Dewpoint Dewpoint Depression Visibility Wind Speed Wind Dir Waves Ship Positions

Roseway

Last pilot schooner in the United States when retired in 1973. Offered teen sailing program through World Ocean School since 2002.

Ship's website: http://www.worldoceanschool.org

Owner: World Ocean School, Boston, MA. More information available from US FCC via Universal Licensing System and Coast Guard Vessel Documentation Center.

Last reported at 2018-Nov-05 16:30 UTC. Time now 2018-Dec-11 00:14 UTC.
Position N 31°59' W 080°45'.
Warning: this ship's position is 35 days out of date.

Length 34 m; draft 3.3 m.

Type: Sailing vessel. MMSI: 366866000.

Date/timePositionNaut miles runAvg speedWind from/ knotsBaromVisibWave heightAir tempDewpointWater temp
2018-Nov-05 16:30N 31°59' W 080°45'2 4.2
2018-Nov-05 16:02N 31°60' W 080°47'2 5.6
2018-Nov-05 15:36N 32°02' W 080°49'1 6.1
2018-Nov-05 15:29N 32°02' W 080°49'3 6.7
2018-Nov-05 15:02N 32°02' W 080°53'0 8.2
2018-Nov-05 14:58N 32°02' W 080°54'3 7.2
2018-Nov-05 14:30N 32°04' W 080°57'3 7.1
2018-Nov-05 14:03N 32°06' W 081°00'0 7.0
2018-Nov-05 14:00N 32°06' W 081°00'4 3.1
2018-Nov-05 12:39N 32°05' W 081°05'0 0.0
2018-Nov-05 11:54N 32°05' W 081°05'0 0.0
2018-Nov-05 11:24N 32°05' W 081°05'0 0.0
2018-Nov-05 11:00N 32°05' W 081°05'0 0.0
2018-Nov-05 10:22N 32°05' W 081°05'0 0.0
2018-Nov-05 09:52N 32°05' W 081°05'0 0.0
2018-Nov-05 09:30N 32°05' W 081°05'0 0.0
2018-Nov-05 08:57N 32°05' W 081°05'0 0.0
2018-Nov-05 08:26N 32°05' W 081°05'0 0.0
2018-Nov-05 07:58N 32°05' W 081°05'0 0.0
2018-Nov-05 07:30N 32°05' W 081°05'0 0.0
2018-Nov-05 06:47N 32°05' W 081°05'0 0.0
2018-Nov-05 06:29N 32°05' W 081°05'0 0.0
2018-Nov-05 05:32N 32°05' W 081°05'0 0.0
2018-Nov-05 05:27N 32°05' W 081°05'0 0.0
2018-Nov-05 05:02N 32°05' W 081°05'0 0.0
2018-Nov-05 04:59N 32°05' W 081°05'0 0.0
2018-Nov-05 04:29N 32°05' W 081°05'0 0.0
2018-Nov-05 04:02N 32°05' W 081°05'0 0.0
2018-Nov-05 03:59N 32°05' W 081°05'0 0.0
2018-Nov-05 03:28N 32°05' W 081°05'0 0.0
2018-Nov-05 03:01N 32°05' W 081°05'0 0.1
2018-Nov-05 02:58N 32°05' W 081°05'0 0.0
2018-Nov-05 02:28N 32°05' W 081°05'0 0.0
2018-Nov-05 02:02N 32°05' W 081°05'0 0.0
2018-Nov-05 01:59N 32°05' W 081°05'0 0.0
2018-Nov-05 01:27N 32°05' W 081°05'0 0.0
2018-Nov-05 01:02N 32°05' W 081°05'0 0.0
2018-Nov-05 00:59N 32°05' W 081°05'0 0.0
2018-Nov-05 00:29N 32°05' W 081°05'0 0.0
2018-Nov-05 00:03N 32°05' W 081°05'0 0.0
2018-Nov-04 23:57N 32°05' W 081°05'0 0.0
2018-Nov-04 23:29N 32°05' W 081°05'0 0.0
2018-Nov-04 23:02N 32°05' W 081°05'0 0.2
2018-Nov-04 22:59N 32°05' W 081°05'0 0.0
2018-Nov-04 22:29N 32°05' W 081°05'0 0.0
2018-Nov-04 22:03N 32°05' W 081°05'0 0.0
2018-Nov-04 22:00N 32°05' W 081°05'0 0.0
2018-Nov-04 21:30N 32°05' W 081°05'0 0.0
2018-Nov-04 21:03N 32°05' W 081°05'0 0.0
2018-Nov-04 21:00N 32°05' W 081°05'0 0.0
2018-Nov-04 20:29N 32°05' W 081°05'0 0.0
2018-Nov-04 19:59N 32°05' W 081°05'0 0.0
2018-Nov-04 19:30N 32°05' W 081°05'0 0.0
2018-Nov-04 18:58N 32°05' W 081°05'0 0.0
2018-Nov-04 18:28N 32°05' W 081°05'0 0.0
2018-Nov-04 18:00N 32°05' W 081°05'0 0.0
2018-Nov-04 17:30N 32°05' W 081°05'0 0.0
2018-Nov-04 17:00N 32°05' W 081°05'0 0.0
2018-Nov-04 16:30N 32°05' W 081°05'0 0.0
2018-Nov-04 16:02N 32°05' W 081°05'0 0.0
2018-Nov-04 15:59N 32°05' W 081°05'0 0.0
2018-Nov-04 15:30N 32°05' W 081°05'0 0.0
2018-Nov-04 15:00N 32°05' W 081°05'0 0.0
2018-Nov-04 14:20N 32°05' W 081°05'0 0.0
2018-Nov-04 13:56N 32°05' W 081°05'0 0.0
2018-Nov-04 13:17N 32°05' W 081°05'0 0.0
2018-Nov-04 13:02N 32°05' W 081°05'0 0.0
2018-Nov-04 12:47N 32°05' W 081°05'0 0.0
2018-Nov-04 12:20N 32°05' W 081°05'0 0.0
2018-Nov-04 11:59N 32°05' W 081°05'0 0.0
2018-Nov-04 11:28N 32°05' W 081°05'0 0.0
2018-Nov-04 10:57N 32°05' W 081°05'0 0.0
2018-Nov-04 10:30N 32°05' W 081°05'0 0.0
2018-Nov-04 10:03N 32°05' W 081°05'0 0.0
2018-Nov-04 10:00N 32°05' W 081°05'0 0.0
2018-Nov-04 09:30N 32°05' W 081°05'0 0.0
2018-Nov-04 09:03N 32°05' W 081°05'0 0.0
2018-Nov-04 09:00N 32°05' W 081°05'0 0.0
2018-Nov-04 08:30N 32°05' W 081°05'0 0.0
2018-Nov-04 08:01N 32°05' W 081°05'0 0.0
2018-Nov-04 07:58N 32°05' W 081°05'0 0.0
2018-Nov-04 07:28N 32°05' W 081°05'0 0.0
2018-Nov-04 07:01N 32°05' W 081°05'0 0.0
2018-Nov-04 06:57N 32°05' W 081°05'0 0.0
2018-Nov-04 06:19N 32°05' W 081°05'0 0.0
2018-Nov-04 05:53N 32°05' W 081°05'0 0.0
2018-Nov-04 05:29N 32°05' W 081°05'0 0.0
2018-Nov-04 05:01N 32°05' W 081°05'0 0.0
2018-Nov-04 04:57N 32°05' W 081°05'0 0.0
2018-Nov-04 04:24N 32°05' W 081°05'0 0.0
2018-Nov-04 04:03N 32°05' W 081°05'0 0.0
2018-Nov-04 03:59N 32°05' W 081°05'0 0.0
2018-Nov-04 03:26N 32°05' W 081°05'0 0.0
2018-Nov-04 03:00N 32°05' W 081°05'0 0.0
2018-Nov-04 02:26N 32°05' W 081°05'0 0.0
2018-Nov-04 01:57N 32°05' W 081°05'0 0.0
2018-Nov-04 01:28N 32°05' W 081°05'0 0.0
2018-Nov-04 00:08N 32°05' W 081°05'0 0.0
2018-Nov-03 23:59N 32°05' W 081°05'0 0.0
2018-Nov-03 23:29N 32°05' W 081°05'0 0.0
2018-Nov-03 22:55N 32°05' W 081°05'0 0.0
2018-Nov-03 22:12N 32°05' W 081°05'0 0.0
2018-Nov-03 20:29N 32°05' W 081°05'0 0.0
2018-Nov-03 19:59N 32°05' W 081°05'0 0.0
2018-Nov-03 19:29N 32°05' W 081°05'0 0.0
2018-Nov-03 18:59N 32°05' W 081°05'0 0.0
2018-Nov-03 18:29N 32°05' W 081°05'0 0.0
2018-Nov-03 18:03N 32°05' W 081°05'0 0.0
2018-Nov-03 18:00N 32°05' W 081°05'0 0.0
2018-Nov-03 17:16N 32°05' W 081°05'0 0.0
2018-Nov-03 17:01N 32°05' W 081°05'0 0.0
2018-Nov-03 16:09N 32°05' W 081°05'0 0.0
2018-Nov-03 15:56N 32°05' W 081°05'0 0.0
2018-Nov-03 15:22N 32°05' W 081°05'0 0.0
2018-Nov-03 15:00N 32°05' W 081°05'0 0.0
2018-Nov-03 14:24N 32°05' W 081°05'0 0.0
2018-Nov-03 13:50N 32°05' W 081°05'0 0.0
2018-Nov-03 13:26N 32°05' W 081°05'0 0.0
2018-Nov-03 12:50N 32°05' W 081°05'0 0.0
2018-Nov-03 12:26N 32°05' W 081°05'0 0.0
2018-Nov-03 11:44N 32°05' W 081°05'0 0.0
2018-Nov-03 11:26N 32°05' W 081°05'0 0.0
2018-Nov-03 10:30N 32°05' W 081°05'0 0.0
2018-Nov-03 09:46N 32°05' W 081°05'0 0.0
2018-Nov-03 09:03N 32°05' W 081°05'0 0.0
2018-Nov-03 09:00N 32°05' W 081°05'0 0.0
2018-Nov-03 08:16N 32°05' W 081°05'0 0.0
2018-Nov-03 07:49N 32°05' W 081°05'0 0.0
2018-Nov-03 07:16N 32°05' W 081°05'0 0.0
2018-Nov-03 07:02N 32°05' W 081°05'0 0.0
2018-Nov-03 06:52N 32°05' W 081°05'0 0.0
2018-Nov-03 06:28N 32°05' W 081°05'0 0.0
2018-Nov-03 06:03N 32°05' W 081°05'0 0.0
2018-Nov-03 06:00N 32°05' W 081°05'0 0.0
2018-Nov-03 05:30N 32°05' W 081°05'0 0.0
2018-Nov-03 05:03N 32°05' W 081°05'0 0.0
2018-Nov-03 05:00N 32°05' W 081°05'0 0.0
2018-Nov-03 04:30N 32°05' W 081°05'0 0.0
2018-Nov-03 04:03N 32°05' W 081°05'0 0.1
2018-Nov-03 04:00N 32°05' W 081°05'0 0.0
2018-Nov-03 03:30N 32°05' W 081°05'0 0.0
2018-Nov-03 03:03N 32°05' W 081°05'0 0.0
2018-Nov-03 03:00N 32°05' W 081°05'0 0.0
2018-Nov-03 02:30N 32°05' W 081°05'0 0.0
2018-Nov-03 02:03N 32°05' W 081°05'0 0.0
2018-Nov-03 02:00N 32°05' W 081°05'0 0.0
2018-Nov-03 01:28N 32°05' W 081°05'0 0.0
2018-Nov-03 01:03N 32°05' W 081°05'0 0.1
2018-Nov-03 01:00N 32°05' W 081°05'0 0.0
2018-Nov-03 00:30N 32°05' W 081°05'0 0.0
2018-Nov-03 00:03N 32°05' W 081°05'0 0.0
2018-Nov-03 00:00N 32°05' W 081°05'0 0.0
2018-Nov-02 23:28N 32°05' W 081°05'0 0.0
2018-Nov-02 23:01N 32°05' W 081°05'0 0.0
2018-Nov-02 22:58N 32°05' W 081°05'0 0.0
2018-Nov-02 22:29N 32°05' W 081°05'0 0.0
2018-Nov-02 22:02N 32°05' W 081°05'0 0.0
2018-Nov-02 21:59N 32°05' W 081°05'0 0.0
2018-Nov-02 21:29N 32°05' W 081°05'0 0.0
2018-Nov-02 21:02N 32°05' W 081°05'0 0.0
2018-Nov-02 20:59N 32°05' W 081°05'0 0.0
2018-Nov-02 20:28N 32°05' W 081°05'0 0.0
2018-Nov-02 20:02N 32°05' W 081°05'0 0.0
2018-Nov-02 19:59N 32°05' W 081°05'0 0.0
2018-Nov-02 19:30N 32°05' W 081°05'0 0.0
2018-Nov-02 19:03N 32°05' W 081°05'0 0.0
2018-Nov-02 19:00N 32°05' W 081°05'0 0.0
2018-Nov-02 18:27N 32°05' W 081°05'0 0.0
2018-Nov-02 18:03N 32°05' W 081°05'0 0.0
2018-Nov-02 18:00N 32°05' W 081°05'0 0.0
2018-Nov-02 17:27N 32°05' W 081°05'0 0.0
2018-Nov-02 17:03N 32°05' W 081°05'0 0.1
2018-Nov-02 17:00N 32°05' W 081°05'0 0.0
2018-Nov-02 16:28N 32°05' W 081°05'0 0.0
2018-Nov-02 16:01N 32°05' W 081°05'0 0.2
2018-Nov-02 15:58N 32°05' W 081°05'0 0.0
2018-Nov-02 15:28N 32°05' W 081°05'0 0.0
2018-Nov-02 15:03N 32°05' W 081°05'0 0.0
2018-Nov-02 15:00N 32°05' W 081°05'0 0.0
2018-Nov-02 14:03N 32°05' W 081°05'0 0.0
2018-Nov-02 14:00N 32°05' W 081°05'0 0.0
2018-Nov-02 13:30N 32°05' W 081°05'0 0.0
2018-Nov-02 13:03N 32°05' W 081°05'0 0.0
2018-Nov-02 13:00N 32°05' W 081°05'0 0.0
2018-Nov-02 12:30N 32°05' W 081°05'0 0.0
2018-Nov-02 12:02N 32°05' W 081°05'0 0.0
2018-Nov-02 11:59N 32°05' W 081°05'0 0.0
2018-Nov-02 11:29N 32°05' W 081°05'0 0.0
2018-Nov-02 11:02N 32°05' W 081°05'0 0.0
2018-Nov-02 10:59N 32°05' W 081°05'0 0.0
2018-Nov-02 10:30N 32°05' W 081°05'0 0.0
2018-Nov-02 10:03N 32°05' W 081°05'0 0.0
2018-Nov-02 10:00N 32°05' W 081°05'0 0.0
2018-Nov-02 09:30N 32°05' W 081°05'0 0.0
2018-Nov-02 09:02N 32°05' W 081°05'0 0.0
2018-Nov-02 08:59N 32°05' W 081°05'0 0.0
2018-Nov-02 08:29N 32°05' W 081°05'0 0.0
2018-Nov-02 07:57N 32°05' W 081°05'0 0.0
2018-Nov-02 07:30N 32°05' W 081°05'0 0.0
2018-Nov-02 07:00N 32°05' W 081°05'0 0.0
2018-Nov-02 06:30N 32°05' W 081°05'0 0.0
2018-Nov-02 06:02N 32°05' W 081°05'0 0.0
2018-Nov-02 05:59N 32°05' W 081°05'0 0.0
2018-Nov-02 05:29N 32°05' W 081°05'0 0.0
2018-Nov-02 05:01N 32°05' W 081°05'0 0.0
2018-Nov-02 04:57N 32°05' W 081°05'0 0.0
2018-Nov-02 04:27N 32°05' W 081°05'0 0.0
2018-Nov-02 04:01N 32°05' W 081°05'0 0.0
2018-Nov-02 03:58N 32°05' W 081°05'0 0.0
2018-Nov-02 03:29N 32°05' W 081°05'0 0.0
2018-Nov-02 03:01N 32°05' W 081°05'0 0.0
2018-Nov-02 02:58N 32°05' W 081°05'0 0.0
2018-Nov-02 02:28N 32°05' W 081°05'0 0.0
2018-Nov-02 02:01N 32°05' W 081°05'0 0.0
2018-Nov-02 01:58N 32°05' W 081°05'0 0.0
2018-Nov-02 01:25N 32°05' W 081°05'0 0.0
2018-Nov-02 01:01N 32°05' W 081°05'0 0.0
2018-Nov-02 00:58N 32°05' W 081°05'0 0.0
2018-Nov-02 00:55N 32°05' W 081°05'0 0.0
2018-Nov-02 00:31N 32°05' W 081°05'0 0.0
2018-Nov-02 00:28N 32°05' W 081°05'0 0.0
2018-Nov-02 00:01N 32°05' W 081°05'0 0.0
2018-Nov-01 23:58N 32°05' W 081°05'0 0.0
2018-Nov-01 23:28N 32°05' W 081°05'0 0.0
2018-Nov-01 23:01N 32°05' W 081°05'0 0.0
2018-Nov-01 22:58N 32°05' W 081°05'0 0.0
2018-Nov-01 22:28N 32°05' W 081°05'0 0.0
2018-Nov-01 22:01N 32°05' W 081°05'0 0.0
2018-Nov-01 21:58N 32°05' W 081°05'0 0.0
2018-Nov-01 21:29N 32°05' W 081°05'0 0.0
2018-Nov-01 21:03N 32°05' W 081°05'0 0.1
2018-Nov-01 21:00N 32°05' W 081°05'0 0.0
2018-Nov-01 20:30N 32°05' W 081°05'0 0.0
2018-Nov-01 20:03N 32°05' W 081°05'0 0.0
2018-Nov-01 20:00N 32°05' W 081°05'0 0.0
2018-Nov-01 19:25N 32°05' W 081°05'0 0.0
2018-Nov-01 19:01N 32°05' W 081°05'0 0.0
2018-Nov-01 18:58N 32°05' W 081°05'0 0.0
2018-Nov-01 18:28N 32°05' W 081°05'0 0.0
2018-Nov-01 18:02N 32°05' W 081°05'0 0.0
2018-Nov-01 17:59N 32°05' W 081°05'0 0.0
2018-Nov-01 17:30N 32°05' W 081°05'0 0.0
2018-Nov-01 17:02N 32°05' W 081°05'0 0.0
2018-Nov-01 16:59N 32°05' W 081°05'0 0.0
2018-Nov-01 16:29N 32°05' W 081°05'0 0.0
2018-Nov-01 16:01N 32°05' W 081°05'0 0.0
2018-Nov-01 15:58N 32°05' W 081°05'0 0.0
2018-Nov-01 15:28N 32°05' W 081°05'0 0.0
2018-Nov-01 14:59N 32°05' W 081°05'0 0.0
2018-Nov-01 14:29N 32°05' W 081°05'0 0.0
2018-Nov-01 13:59N 32°05' W 081°05'0 0.0
2018-Nov-01 13:29N 32°05' W 081°05'0 0.0
2018-Nov-01 08:51N 32°05' W 081°05'0 0.0
2018-Nov-01 08:29N 32°05' W 081°05'0 0.0
2018-Nov-01 08:02N 32°05' W 081°05'0 0.0
2018-Nov-01 07:59N 32°05' W 081°05'0 0.0
2018-Nov-01 07:29N 32°05' W 081°05'0 0.0
2018-Nov-01 07:02N 32°05' W 081°05'0 0.0
2018-Nov-01 06:59N 32°05' W 081°05'0 0.0
2018-Nov-01 06:27N 32°05' W 081°05'0 0.0
2018-Nov-01 06:03N 32°05' W 081°05'0 0.0
2018-Nov-01 06:00N 32°05' W 081°05'0 0.0
2018-Nov-01 05:30N 32°05' W 081°05'0 0.0
2018-Nov-01 05:02N 32°05' W 081°05'0 0.0
2018-Nov-01 04:59N 32°05' W 081°05'0 0.0
2018-Nov-01 04:29N 32°05' W 081°05'0 0.0
2018-Nov-01 04:03N 32°05' W 081°05'0 0.1
2018-Nov-01 04:00N 32°05' W 081°05'0 0.0
2018-Nov-01 03:30N 32°05' W 081°05'0 0.0
2018-Nov-01 03:02N 32°05' W 081°05'0 0.1
2018-Nov-01 02:59N 32°05' W 081°05'0 0.0
2018-Nov-01 02:30N 32°05' W 081°05'0 0.0
2018-Nov-01 02:03N 32°05' W 081°05'0 0.0
2018-Nov-01 02:00N 32°05' W 081°05'0 0.0
2018-Nov-01 01:30N 32°05' W 081°05'0 0.0
2018-Nov-01 01:03N 32°05' W 081°05'0 0.0
2018-Nov-01 01:00N 32°05' W 081°05'0 0.0
2018-Nov-01 00:29N 32°05' W 081°05'0 0.0
2018-Nov-01 00:01N 32°05' W 081°05'0 0.0
2018-Oct-31 23:58N 32°05' W 081°05'0 0.0
2018-Oct-31 23:28N 32°05' W 081°05'0 0.0
2018-Oct-31 23:01N 32°05' W 081°05'0 0.0
2018-Oct-31 22:58N 32°05' W 081°05'0 0.0
2018-Oct-31 22:28N 32°05' W 081°05'0 0.0
2018-Oct-31 22:03N 32°05' W 081°05'0 0.0
2018-Oct-31 22:00N 32°05' W 081°05'0 0.0
2018-Oct-31 21:30N 32°05' W 081°05'0 0.0
2018-Oct-31 21:03N 32°05' W 081°05'0 0.0
2018-Oct-31 21:00N 32°05' W 081°05'0 0.0
2018-Oct-31 20:27N 32°05' W 081°05'0 0.0
2018-Oct-31 20:03N 32°05' W 081°05'0 0.0
2018-Oct-31 20:00N 32°05' W 081°05'0 0.0
2018-Oct-31 19:29N 32°05' W 081°05'0 0.0
2018-Oct-31 19:02N 32°05' W 081°05'0 0.0
2018-Oct-31 18:59N 32°05' W 081°05'0 0.0
2018-Oct-31 18:29N 32°05' W 081°05'0 0.0
2018-Oct-31 18:01N 32°05' W 081°05'0 0.0
2018-Oct-31 17:58N 32°05' W 081°05'0 0.0
2018-Oct-31 17:28N 32°05' W 081°05'0 0.0
2018-Oct-31 17:01N 32°05' W 081°05'0 0.1
2018-Oct-31 16:58N 32°05' W 081°05'0 0.0
2018-Oct-31 16:28N 32°05' W 081°05'0 0.0
2018-Oct-31 16:01N 32°05' W 081°05'0 0.0
2018-Oct-31 15:58N 32°05' W 081°05'0 0.0
2018-Oct-31 15:23N 32°05' W 081°05'0 0.0
2018-Oct-31 15:02N 32°05' W 081°05'0 0.0
2018-Oct-31 14:59N 32°05' W 081°05'0 0.0
2018-Oct-31 14:28N 32°05' W 081°05'0 0.0
2018-Oct-31 13:56N 32°05' W 081°05'0 0.0
2018-Oct-31 13:28N 32°05' W 081°05'0 0.0
2018-Oct-31 13:03N 32°05' W 081°05'0 0.0
2018-Oct-31 13:00N 32°05' W 081°05'0 0.0
2018-Oct-31 12:28N 32°05' W 081°05'0 0.0
2018-Oct-31 11:58N 32°05' W 081°05'0 0.0
2018-Oct-31 11:26N 32°05' W 081°05'0 0.0
2018-Oct-31 11:02N 32°05' W 081°05'0 0.0
2018-Oct-31 10:59N 32°05' W 081°05'0 0.0
2018-Oct-31 10:28N 32°05' W 081°05'0 0.0
2018-Oct-31 10:01N 32°05' W 081°05'0 0.0
2018-Oct-31 09:58N 32°05' W 081°05'0 0.0
2018-Oct-31 09:28N 32°05' W 081°05'0 0.0
2018-Oct-31 09:02N 32°05' W 081°05'0 0.1
2018-Oct-31 08:59N 32°05' W 081°05'0 0.0
2018-Oct-31 08:30N 32°05' W 081°05'0 0.0
2018-Oct-31 08:02N 32°05' W 081°05'0 0.0
2018-Oct-31 07:59N 32°05' W 081°05'0 0.0
2018-Oct-31 07:25N 32°05' W 081°05'0 0.0
2018-Oct-31 06:58N 32°05' W 081°05'0 0.0
2018-Oct-31 06:28N 32°05' W 081°05'0 0.0
2018-Oct-31 05:58N 32°05' W 081°05'0 0.0
2018-Oct-31 05:28N 32°05' W 081°05'0 0.0
2018-Oct-31 05:02N 32°05' W 081°05'0 0.0
2018-Oct-31 04:59N 32°05' W 081°05'0 0.0
2018-Oct-31 04:30N 32°05' W 081°05'0 0.0
2018-Oct-31 04:03N 32°05' W 081°05'0 0.1
2018-Oct-31 04:00N 32°05' W 081°05'0 0.0
2018-Oct-31 03:29N 32°05' W 081°05'0 0.0
2018-Oct-31 03:03N 32°05' W 081°05'0 0.0
2018-Oct-31 03:00N 32°05' W 081°05'0 0.0
2018-Oct-31 02:29N 32°05' W 081°05'0 0.0
2018-Oct-31 02:01N 32°05' W 081°05'0 0.0
2018-Oct-31 01:58N 32°05' W 081°05'0 0.0
2018-Oct-31 01:23N 32°05' W 081°05'0 0.0
2018-Oct-31 01:02N 32°05' W 081°05'0 0.0
2018-Oct-31 00:56N 32°05' W 081°05'0 0.0
2018-Oct-31 00:27N 32°05' W 081°05'0 0.0
2018-Oct-31 00:02N 32°05' W 081°05'0 0.0
2018-Oct-30 23:59N 32°05' W 081°05'0 0.0
2018-Oct-30 23:25N 32°05' W 081°05'0 0.0
2018-Oct-30 23:01N 32°05' W 081°05'0 0.0
2018-Oct-30 22:58N 32°05' W 081°05'0 0.0
2018-Oct-30 22:28N 32°05' W 081°05'0 0.0
2018-Oct-30 21:56N 32°05' W 081°05'0 0.0
2018-Oct-30 21:29N 32°05' W 081°05'0 0.0
2018-Oct-30 21:03N 32°05' W 081°05'0 0.0
2018-Oct-30 21:00N 32°05' W 081°05'0 0.0
2018-Oct-30 20:30N 32°05' W 081°05'0 0.0
2018-Oct-30 19:56N 32°05' W 081°05'0 0.0
2018-Oct-30 19:29N 32°05' W 081°05'0 0.0
2018-Oct-30 19:02N 32°05' W 081°05'0 0.0
2018-Oct-30 18:59N 32°05' W 081°05'0 0.0
2018-Oct-30 18:30N 32°05' W 081°05'0 0.0
2018-Oct-30 18:03N 32°05' W 081°05'0 0.1
2018-Oct-30 18:00N 32°05' W 081°05'0 0.0
2018-Oct-30 17:29N 32°05' W 081°05'0 0.0
2018-Oct-30 17:01N 32°05' W 081°05'0 0.0
2018-Oct-30 16:58N 32°05' W 081°05'0 0.0
2018-Oct-30 16:28N 32°05' W 081°05'0 0.0
2018-Oct-30 16:01N 32°05' W 081°05'0 0.1
2018-Oct-30 15:58N 32°05' W 081°05'0 0.0
2018-Oct-30 15:30N 32°05' W 081°05'0 0.0
2018-Oct-30 15:01N 32°05' W 081°05'0 0.0
2018-Oct-30 14:53N 32°05' W 081°05'0 0.0
2018-Oct-30 14:01N 32°05' W 081°05'0 0.0
2018-Oct-30 13:28N 32°05' W 081°05'0 0.0
2018-Oct-30 13:01N 32°05' W 081°05'0 0.0
2018-Oct-30 12:58N 32°05' W 081°05'0 0.0
2018-Oct-30 12:28N 32°05' W 081°05'0 0.0
2018-Oct-30 12:02N 32°05' W 081°05'0 0.1
2018-Oct-30 11:59N 32°05' W 081°05'0 0.0
2018-Oct-30 11:30N 32°05' W 081°05'0 0.0
2018-Oct-30 11:03N 32°05' W 081°05'0 0.1
2018-Oct-30 11:00N 32°05' W 081°05'0 0.0
2018-Oct-30 10:30N 32°05' W 081°05'0 0.0
2018-Oct-30 10:03N 32°05' W 081°05'0 0.0
2018-Oct-30 10:00N 32°05' W 081°05'0 0.0
2018-Oct-30 09:30N 32°05' W 081°05'0 0.0
2018-Oct-30 08:15N 32°05' W 081°05'0 0.0
2018-Oct-30 08:00N 32°05' W 081°05'0 0.0
2018-Oct-30 07:28N 32°05' W 081°05'0 0.0
2018-Oct-30 06:22N 32°05' W 081°05'0 0.0
2018-Oct-30 06:02N 32°05' W 081°05'0 0.0
2018-Oct-30 05:59N 32°05' W 081°05'0 0.0
2018-Oct-30 05:29N 32°05' W 081°05'0 0.0
2018-Oct-30 05:02N 32°05' W 081°05'0 0.0
2018-Oct-30 04:59N 32°05' W 081°05'0 0.0
2018-Oct-30 04:29N 32°05' W 081°05'0 0.0
2018-Oct-30 04:02N 32°05' W 081°05'0 0.0
2018-Oct-30 03:56N 32°05' W 081°05'0 0.0
2018-Oct-30 03:30N 32°05' W 081°05'0 0.0
2018-Oct-30 03:03N 32°05' W 081°05'0 0.0
2018-Oct-30 02:57N 32°05' W 081°05'0 0.0
2018-Oct-30 02:30N 32°05' W 081°05'0 0.0
2018-Oct-30 02:03N 32°05' W 081°05'0 0.0
2018-Oct-30 02:00N 32°05' W 081°05'0 0.0
2018-Oct-30 01:28N 32°05' W 081°05'0 0.0
2018-Oct-30 01:03N 32°05' W 081°05'0 0.0
2018-Oct-30 01:00N 32°05' W 081°05'0 0.0
2018-Oct-30 00:29N 32°05' W 081°05'0 0.0
2018-Oct-30 00:02N 32°05' W 081°05'0 0.0
2018-Oct-29 23:58N 32°05' W 081°05'0 0.0
2018-Oct-29 23:28N 32°05' W 081°05'0 0.0
2018-Oct-29 23:01N 32°05' W 081°05'0 0.1
2018-Oct-29 22:58N 32°05' W 081°05'0 0.0
2018-Oct-29 22:30N 32°05' W 081°05'0 0.0
2018-Oct-29 22:01N 32°05' W 081°05'0 0.0
2018-Oct-29 21:58N 32°05' W 081°05'0 0.0
2018-Oct-29 21:28N 32°05' W 081°05'0 0.0
2018-Oct-29 21:02N 32°05' W 081°05'0 0.0
2018-Oct-29 20:59N 32°05' W 081°05'0 0.0
2018-Oct-29 20:28N 32°05' W 081°05'0 0.0
2018-Oct-29 20:03N 32°05' W 081°05'0 0.0
2018-Oct-29 20:00N 32°05' W 081°05'0 0.0
2018-Oct-29 19:25N 32°05' W 081°05'0 0.0
2018-Oct-29 19:02N 32°05' W 081°05'0 0.0
2018-Oct-29 18:59N 32°05' W 081°05'0 0.0
2018-Oct-29 18:30N 32°05' W 081°05'0 0.0
2018-Oct-29 18:03N 32°05' W 081°05'0 0.0
2018-Oct-29 18:00N 32°05' W 081°05'1 2.1
2018-Oct-29 17:30N 32°05' W 081°04'2 5.1
2018-Oct-29 17:03N 32°06' W 081°01'0 5.9
2018-Oct-29 17:00N 32°06' W 081°01'2 4.3
2018-Oct-29 16:30N 32°05' W 080°59'2 5.5
2018-Oct-29 16:03N 32°03' W 080°56'0 6.2
2018-Oct-29 16:00N 32°03' W 080°56'3 5.9
2018-Oct-29 15:30N 32°02' W 080°53'3 5.6
2018-Oct-29 15:03N 32°02' W 080°50'0 5.4
2018-Oct-29 15:00N 32°02' W 080°50'3 5.7
2018-Oct-29 14:30N 31°60' W 080°48'  
2018-Oct-26 22:31N 32°47' W 079°55'  

Dump ship's entire track history